Absecon, New Jersey
Current Conditions -  °F | °C
As of 6:54 PM on Friday 31 Oct 2014 (Local Time) from KACY Reporting Station
Overcast Overcast  
Wind Chill: 50°   Ceiling: 3000
Heat Index: 50°   Visibility: 10mi
Dew Point: 41°   Wind: 10mph
Humidity: 71%   Direction: 10°N
Pressure: 29.85"   Gusts: NA
Location:  39.43°N, 74.51°W
Report Text: KACY 312254Z 01009KT 10SM OVC030 10/05 A2985 RMK AO2 SLP108 T01000050
Loading
Personal Weather Stations






























Interactive Weather Map
Tropical Storm Tracking
New forecast layout! Learn more

10-Day Weather Forecast

Advertisements
Track Severe Weather on mobile